createdAt,value
2022-08-17T00:03:17.502Z,17.83
2022-08-17T00:06:29.056Z,17.74
2022-08-17T00:09:38.410Z,17.69
2022-08-17T00:12:46.357Z,17.59
2022-08-17T00:15:57.145Z,17.49
2022-08-17T00:19:08.505Z,17.48
2022-08-17T00:22:33.672Z,17.54
2022-08-17T00:25:46.496Z,17.46
2022-08-17T00:28:52.635Z,17.42
2022-08-17T00:31:59.065Z,17.37
2022-08-17T00:35:08.924Z,17.34
2022-08-17T00:38:15.067Z,17.27
2022-08-17T00:41:24.518Z,17.28
2022-08-17T00:44:30.452Z,17.20
2022-08-17T00:47:36.937Z,17.13
2022-08-17T00:50:48.599Z,17.13
2022-08-17T00:54:09.972Z,17.12
2022-08-17T00:57:19.260Z,17.14
2022-08-17T01:00:30.602Z,17.05
2022-08-17T01:03:37.424Z,17.01
2022-08-17T01:06:43.947Z,17.00
2022-08-17T01:09:50.249Z,16.97
2022-08-17T01:12:56.339Z,16.97
2022-08-17T01:16:29.192Z,16.89
2022-08-17T01:19:39.926Z,16.87
2022-08-17T01:22:46.125Z,16.82
2022-08-17T01:25:54.713Z,16.86
2022-08-17T01:29:02.070Z,16.85
2022-08-17T01:32:09.209Z,16.87
2022-08-17T01:35:15.929Z,16.80
2022-08-17T01:38:26.463Z,16.82
2022-08-17T01:41:33.198Z,16.77
2022-08-17T01:44:39.552Z,16.76
2022-08-17T01:47:45.479Z,16.72
2022-08-17T01:50:52.943Z,16.67
2022-08-17T01:54:03.428Z,16.65
2022-08-17T01:57:10.188Z,16.63
2022-08-17T02:00:25.180Z,16.60
2022-08-17T02:03:32.866Z,16.65
2022-08-17T02:06:45.002Z,16.58
2022-08-17T02:09:52.726Z,16.55
2022-08-17T02:12:59.014Z,16.54
2022-08-17T02:16:05.311Z,16.48
2022-08-17T02:19:14.336Z,16.47
2022-08-17T02:22:21.019Z,16.39
2022-08-17T02:25:30.480Z,16.34
2022-08-17T02:28:37.749Z,16.31
2022-08-17T02:31:45.471Z,16.21
2022-08-17T02:34:52.365Z,16.10
2022-08-17T02:37:59.166Z,16.11
2022-08-17T02:41:05.847Z,16.12
2022-08-17T02:44:12.441Z,16.13
2022-08-17T02:47:18.374Z,16.12
2022-08-17T02:50:32.672Z,16.14
2022-08-17T02:53:38.734Z,16.09
2022-08-17T02:56:44.867Z,16.13
2022-08-17T02:59:51.489Z,16.08
2022-08-17T03:02:58.902Z,16.02
2022-08-17T03:06:06.226Z,15.97
2022-08-17T03:09:12.431Z,15.95
2022-08-17T03:12:18.628Z,15.96
2022-08-17T03:15:29.554Z,16.05
2022-08-17T03:18:35.224Z,15.96
2022-08-17T03:21:41.138Z,15.95
2022-08-17T03:24:47.197Z,15.96
2022-08-17T03:27:54.655Z,15.98
2022-08-17T03:31:00.723Z,15.96
2022-08-17T03:34:06.890Z,15.96
2022-08-17T03:37:13.093Z,15.92
2022-08-17T03:40:55.038Z,15.93
2022-08-17T03:43:47.590Z,15.94
2022-08-17T03:47:16.317Z,15.94
2022-08-17T03:50:53.013Z,15.98
2022-08-17T03:54:20.681Z,15.99
2022-08-17T03:57:27.502Z,15.99
2022-08-17T04:00:39.585Z,15.99
2022-08-17T04:03:45.951Z,16.00
2022-08-17T04:06:52.554Z,16.01
2022-08-17T04:10:00.166Z,15.98
2022-08-17T04:13:06.433Z,15.98
2022-08-17T04:16:12.678Z,16.00
2022-08-17T04:19:18.772Z,16.06
2022-08-17T04:22:31.850Z,16.11
2022-08-17T04:25:54.750Z,16.21
2022-08-17T04:29:01.449Z,16.29
2022-08-17T04:32:13.569Z,16.38
2022-08-17T04:35:30.780Z,16.47
2022-08-17T04:38:46.078Z,16.57
2022-08-17T04:42:10.506Z,16.81
2022-08-17T04:45:16.531Z,17.10
2022-08-17T04:48:36.706Z,17.37
2022-08-17T04:51:56.177Z,17.53
2022-08-17T04:55:13.135Z,17.74
2022-08-17T04:58:20.967Z,17.90
2022-08-17T05:01:30.482Z,18.13
2022-08-17T05:04:37.080Z,18.32
2022-08-17T05:07:43.456Z,18.51
2022-08-17T05:11:11.282Z,18.71
2022-08-17T05:14:18.334Z,18.84
2022-08-17T05:17:27.610Z,18.99
2022-08-17T05:20:35.872Z,19.04
2022-08-17T05:23:42.754Z,19.25
2022-08-17T05:26:50.232Z,19.45
2022-08-17T05:29:58.935Z,19.66
2022-08-17T05:33:14.009Z,19.87
2022-08-17T05:36:43.484Z,20.02
2022-08-17T05:39:49.141Z,20.18
2022-08-17T05:43:08.392Z,20.39
2022-08-17T05:46:35.030Z,20.56
2022-08-17T05:49:41.558Z,20.78
2022-08-17T05:53:12.012Z,20.92
2022-08-17T05:56:51.855Z,21.11
2022-08-17T06:00:02.176Z,21.24
2022-08-17T06:03:38.570Z,21.36
2022-08-17T06:07:17.530Z,21.52
2022-08-17T06:10:51.150Z,21.64
2022-08-17T06:14:04.621Z,21.77
2022-08-17T06:17:28.152Z,21.99
2022-08-17T06:21:14.470Z,22.06
2022-08-17T06:24:42.250Z,22.32
2022-08-17T06:28:04.690Z,22.54
2022-08-17T06:31:29.671Z,22.62
2022-08-17T06:34:40.976Z,22.80
2022-08-17T06:38:00.933Z,23.01
2022-08-17T06:41:45.851Z,23.14
2022-08-17T06:45:05.709Z,23.12
2022-08-17T06:48:41.111Z,23.41
2022-08-17T06:52:04.220Z,23.65
2022-08-17T06:55:18.077Z,23.92
2022-08-17T06:58:33.721Z,24.02
2022-08-17T07:01:43.615Z,24.25
2022-08-17T07:04:52.049Z,24.47
2022-08-17T07:08:14.883Z,24.77
2022-08-17T07:11:44.571Z,24.80
2022-08-17T07:15:14.823Z,24.96
2022-08-17T07:18:22.294Z,25.25
2022-08-17T07:21:42.964Z,25.36
2022-08-17T07:24:55.232Z,25.48
2022-08-17T07:28:11.151Z,25.83
2022-08-17T07:31:19.310Z,25.95
2022-08-17T07:34:26.589Z,26.26
2022-08-17T07:37:41.209Z,26.37
2022-08-17T07:41:03.717Z,26.60
2022-08-17T07:44:15.216Z,26.85
2022-08-17T07:47:41.729Z,27.05
2022-08-17T07:50:52.990Z,27.36
2022-08-17T07:54:28.530Z,27.52
2022-08-17T07:57:38.529Z,27.69
2022-08-17T08:00:47.848Z,27.75
2022-08-17T08:03:55.526Z,27.73
2022-08-17T08:07:34.372Z,27.96
2022-08-17T08:10:45.221Z,28.22
2022-08-17T08:13:52.931Z,28.48
2022-08-17T08:17:05.902Z,28.71
2022-08-17T08:20:53.453Z,29.01
2022-08-17T08:24:30.148Z,29.30
2022-08-17T08:28:11.129Z,29.52
2022-08-17T08:31:33.630Z,29.52
2022-08-17T08:35:24.405Z,29.91
2022-08-17T08:39:09.600Z,29.90
2022-08-17T08:42:36.829Z,30.18
2022-08-17T08:46:30.785Z,30.74
2022-08-17T08:50:37.061Z,30.98
2022-08-17T08:54:07.012Z,31.15
2022-08-17T08:57:34.297Z,30.97
2022-08-17T09:00:50.672Z,31.33
2022-08-17T09:04:25.220Z,31.17
2022-08-17T09:07:43.486Z,31.42
2022-08-17T09:11:07.112Z,31.29
2022-08-17T09:14:28.427Z,31.42
2022-08-17T09:19:03.527Z,32.17
2022-08-17T09:22:12.217Z,32.49
2022-08-17T09:25:22.600Z,32.56
2022-08-17T09:28:39.970Z,32.03
2022-08-17T09:31:59.888Z,32.32
2022-08-17T09:35:18.482Z,32.76
2022-08-17T09:39:02.356Z,33.08
2022-08-17T09:42:33.173Z,32.67
2022-08-17T09:46:09.106Z,33.13
2022-08-17T09:49:26.152Z,33.18
2022-08-17T09:52:34.791Z,33.52
2022-08-17T09:56:30.230Z,33.23
2022-08-17T10:00:15.284Z,33.43
2022-08-17T10:03:43.642Z,33.66
2022-08-17T10:07:22.392Z,33.70
2022-08-17T10:10:57.047Z,33.86
2022-08-17T10:14:36.355Z,34.37
2022-08-17T10:17:59.813Z,34.97
2022-08-17T10:21:35.851Z,34.81
2022-08-17T10:25:22.654Z,34.42
2022-08-17T10:29:02.492Z,35.03
2022-08-17T10:32:13.065Z,35.56
2022-08-17T10:36:06.392Z,35.47
2022-08-17T10:39:53.491Z,35.29
2022-08-17T10:43:07.651Z,35.69
2022-08-17T10:46:30.974Z,36.15
2022-08-17T10:49:59.511Z,36.58
2022-08-17T10:53:07.311Z,36.45
2022-08-17T10:56:16.989Z,36.65
2022-08-17T10:59:40.812Z,37.22
2022-08-17T11:02:52.704Z,37.25
2022-08-17T11:06:09.072Z,37.22
2022-08-17T11:09:47.831Z,37.59
2022-08-17T11:13:36.470Z,37.67
2022-08-17T11:17:07.130Z,37.50
2022-08-17T11:20:43.003Z,36.46
2022-08-17T11:24:23.354Z,36.42
2022-08-17T11:27:35.932Z,36.79
2022-08-17T11:30:48.958Z,37.60
2022-08-17T11:34:04.492Z,36.52
2022-08-17T11:37:47.731Z,37.42
2022-08-17T11:41:12.029Z,37.92
2022-08-17T11:44:39.597Z,37.13
2022-08-17T11:48:27.177Z,37.98
2022-08-17T11:52:02.730Z,38.94
2022-08-17T11:55:34.732Z,38.37
2022-08-17T11:58:49.348Z,38.36
2022-08-17T12:02:03.770Z,38.09
2022-08-17T12:05:30.358Z,38.05
2022-08-17T12:08:48.151Z,38.11
2022-08-17T12:12:13.264Z,37.76
2022-08-17T12:15:41.212Z,38.28
2022-08-17T12:19:09.310Z,38.93
2022-08-17T12:23:04.570Z,38.61
2022-08-17T12:26:23.912Z,39.03
2022-08-17T12:29:35.695Z,39.63
2022-08-17T12:32:59.418Z,39.41
2022-08-17T12:36:09.489Z,40.17
2022-08-17T12:39:28.754Z,39.91
2022-08-17T12:42:56.429Z,40.32
2022-08-17T12:46:13.285Z,38.26
2022-08-17T12:49:40.150Z,38.65
2022-08-17T12:52:50.169Z,38.71
2022-08-17T12:56:01.975Z,39.45
2022-08-17T12:59:07.823Z,39.64
2022-08-17T13:02:33.450Z,39.81
2022-08-17T13:05:46.529Z,39.54
2022-08-17T13:08:54.670Z,38.83
2022-08-17T13:12:05.042Z,40.02
2022-08-17T13:15:30.910Z,40.76
2022-08-17T13:18:52.409Z,41.32
2022-08-17T13:22:02.066Z,40.70
2022-08-17T13:25:32.015Z,41.15
2022-08-17T13:28:38.294Z,40.04
2022-08-17T13:31:52.933Z,39.76
2022-08-17T13:35:39.242Z,40.54
2022-08-17T13:38:53.050Z,39.76
2022-08-17T13:42:02.511Z,40.79
2022-08-17T13:45:40.569Z,40.58
2022-08-17T13:49:05.470Z,41.05
2022-08-17T13:52:38.086Z,41.44
2022-08-17T13:56:02.659Z,41.58
2022-08-17T13:59:53.900Z,41.28
2022-08-17T14:03:06.508Z,41.14
2022-08-17T14:06:13.184Z,41.14
2022-08-17T14:10:09.576Z,39.59
2022-08-17T14:13:16.120Z,40.93
2022-08-17T14:16:42.964Z,39.37
2022-08-17T14:19:48.928Z,40.91
2022-08-17T14:22:58.869Z,41.14
2022-08-17T14:26:07.130Z,41.51
2022-08-17T14:29:19.491Z,41.11
2022-08-17T14:32:38.531Z,41.90
2022-08-17T14:35:47.951Z,42.58
2022-08-17T14:38:57.991Z,42.32
2022-08-17T14:42:07.538Z,41.97
2022-08-17T14:45:30.270Z,40.42
2022-08-17T14:48:41.629Z,40.88
2022-08-17T14:51:50.630Z,40.18
2022-08-17T14:55:03.602Z,41.03
2022-08-17T14:58:13.460Z,41.75
2022-08-17T15:01:22.486Z,41.81
2022-08-17T15:04:30.268Z,41.53
2022-08-17T15:07:37.384Z,41.84
2022-08-17T15:10:47.072Z,41.14
2022-08-17T15:13:55.014Z,41.25
2022-08-17T15:17:03.731Z,41.46
2022-08-17T15:20:14.902Z,40.63
2022-08-17T15:23:27.076Z,41.50
2022-08-17T15:26:33.624Z,41.06
2022-08-17T15:29:39.841Z,40.85
2022-08-17T15:32:51.159Z,40.48
2022-08-17T15:36:10.794Z,41.11
2022-08-17T15:39:19.520Z,40.37
2022-08-17T15:42:28.415Z,40.72
2022-08-17T15:45:36.327Z,40.54
2022-08-17T15:48:54.430Z,39.87
2022-08-17T15:52:02.715Z,40.04
2022-08-17T15:55:16.587Z,40.71
2022-08-17T15:58:30.048Z,40.67
2022-08-17T16:01:45.475Z,40.05
2022-08-17T16:05:20.052Z,40.04
2022-08-17T16:08:27.693Z,38.96
2022-08-17T16:11:35.167Z,38.70
2022-08-17T16:14:42.813Z,37.07
2022-08-17T16:17:50.573Z,36.78
2022-08-17T16:20:59.031Z,35.70
2022-08-17T16:24:14.987Z,35.63
2022-08-17T16:27:23.701Z,35.03
2022-08-17T16:30:33.569Z,35.02
2022-08-17T16:34:09.018Z,34.67
2022-08-17T16:37:20.934Z,34.40
2022-08-17T16:40:35.635Z,34.17
2022-08-17T16:43:57.885Z,33.99
2022-08-17T16:47:03.713Z,33.68
2022-08-17T16:50:12.969Z,33.46
2022-08-17T16:53:19.617Z,33.43
2022-08-17T16:56:26.255Z,33.33
2022-08-17T16:59:40.925Z,33.20
2022-08-17T17:03:26.163Z,33.00
2022-08-17T17:06:42.430Z,32.80
2022-08-17T17:09:49.916Z,32.46
2022-08-17T17:13:02.616Z,32.24
2022-08-17T17:16:54.235Z,32.02
2022-08-17T17:20:27.390Z,31.77
2022-08-17T17:24:01.210Z,31.47
2022-08-17T17:27:34.790Z,31.10
2022-08-17T17:31:26.652Z,30.81
2022-08-17T17:34:36.992Z,30.44
2022-08-17T17:37:46.457Z,30.09
2022-08-17T17:41:07.951Z,29.76
2022-08-17T17:44:17.987Z,29.47
2022-08-17T17:47:28.909Z,29.11
2022-08-17T17:52:06.483Z,28.86
2022-08-17T17:55:16.191Z,28.62
2022-08-17T17:58:23.215Z,28.29
2022-08-17T18:02:06.106Z,28.01
2022-08-17T18:05:44.564Z,27.81
2022-08-17T18:09:18.010Z,27.53
2022-08-17T18:12:40.815Z,27.28
2022-08-17T18:15:55.508Z,27.04
2022-08-17T18:19:04.088Z,26.83
2022-08-17T18:22:21.991Z,26.64
2022-08-17T18:25:51.751Z,26.47
2022-08-17T18:29:02.132Z,26.21
2022-08-17T18:32:32.772Z,26.01
2022-08-17T18:35:44.269Z,25.85
2022-08-17T18:38:51.692Z,25.64
2022-08-17T18:42:06.429Z,25.55
2022-08-17T18:45:41.170Z,25.38
2022-08-17T18:48:59.427Z,25.21
2022-08-17T18:52:33.691Z,25.04
2022-08-17T18:55:41.870Z,24.88
2022-08-17T18:59:26.331Z,24.76
2022-08-17T19:02:45.113Z,24.63
2022-08-17T19:06:30.491Z,24.49
2022-08-17T19:09:39.874Z,24.33
2022-08-17T19:13:15.132Z,24.23
2022-08-17T19:17:01.355Z,24.08
2022-08-17T19:20:24.235Z,23.95
2022-08-17T19:24:10.272Z,23.69
2022-08-17T19:27:46.395Z,23.59
2022-08-17T19:31:11.255Z,23.53
2022-08-17T19:34:30.242Z,23.42
2022-08-17T19:37:53.472Z,23.28
2022-08-17T19:41:13.203Z,23.18
2022-08-17T19:45:04.387Z,23.06
2022-08-17T19:48:18.211Z,22.89
2022-08-17T19:51:42.071Z,22.79
2022-08-17T19:55:00.450Z,22.63
2022-08-17T19:58:36.110Z,22.50
2022-08-17T20:02:01.075Z,22.43
2022-08-17T20:06:10.893Z,22.33
2022-08-17T20:09:29.762Z,22.24
2022-08-17T20:12:43.772Z,22.11
2022-08-17T20:15:51.430Z,22.05
2022-08-17T20:19:22.589Z,21.94
2022-08-17T20:22:56.390Z,21.86
2022-08-17T20:26:22.710Z,21.77
2022-08-17T20:30:00.692Z,21.66
2022-08-17T20:33:22.093Z,21.59
2022-08-17T20:36:52.327Z,21.43
2022-08-17T20:39:58.503Z,21.39
2022-08-17T20:43:39.809Z,21.35
2022-08-17T20:47:04.292Z,21.33
2022-08-17T20:50:32.493Z,21.28
2022-08-17T20:53:51.590Z,21.21
2022-08-17T20:57:01.213Z,21.12
2022-08-17T21:00:23.110Z,20.99
2022-08-17T21:03:30.410Z,20.90
2022-08-17T21:07:42.639Z,20.86
2022-08-17T21:10:53.151Z,20.82
2022-08-17T21:14:18.972Z,20.81
2022-08-17T21:17:32.252Z,20.73
2022-08-17T21:21:05.400Z,20.67
2022-08-17T21:24:26.990Z,20.56
2022-08-17T21:28:13.933Z,20.54
2022-08-17T21:31:50.070Z,20.53
2022-08-17T21:35:08.792Z,20.45
2022-08-17T21:38:19.171Z,20.36
2022-08-17T21:41:30.712Z,20.32
2022-08-17T21:44:41.091Z,20.30
2022-08-17T21:47:53.320Z,20.26
2022-08-17T21:51:22.970Z,20.20
2022-08-17T21:54:33.391Z,20.14
2022-08-17T21:57:53.244Z,20.10
2022-08-17T22:01:26.003Z,20.03
2022-08-17T22:04:45.752Z,20.03
2022-08-17T22:08:04.591Z,19.92
2022-08-17T22:11:14.290Z,19.87
2022-08-17T22:14:24.075Z,19.79
2022-08-17T22:17:36.202Z,19.74
2022-08-17T22:20:42.012Z,19.73
2022-08-17T22:24:10.372Z,19.71
2022-08-17T22:27:19.484Z,19.64
2022-08-17T22:30:41.071Z,19.56
2022-08-17T22:33:53.578Z,19.50
2022-08-17T22:37:27.680Z,19.47
2022-08-17T22:40:37.014Z,19.45
2022-08-17T22:43:44.949Z,19.41
2022-08-17T22:47:03.955Z,19.41
2022-08-17T22:50:30.013Z,19.38
2022-08-17T22:53:57.770Z,19.33
2022-08-17T22:57:27.774Z,19.29
2022-08-17T23:00:44.397Z,19.25
2022-08-17T23:04:13.815Z,19.23
2022-08-17T23:07:21.872Z,19.10
2022-08-17T23:10:30.172Z,19.06
2022-08-17T23:13:39.214Z,19.08
2022-08-17T23:16:46.903Z,19.03
2022-08-17T23:19:54.633Z,18.95
2022-08-17T23:23:02.573Z,18.94
2022-08-17T23:26:13.153Z,18.86
2022-08-17T23:29:28.392Z,18.87
2022-08-17T23:32:38.093Z,18.88
2022-08-17T23:36:02.913Z,18.86
2022-08-17T23:39:10.239Z,18.79
2022-08-17T23:42:24.171Z,18.76
2022-08-17T23:45:32.012Z,18.73
2022-08-17T23:48:39.892Z,18.70
2022-08-17T23:51:47.253Z,18.69
2022-08-17T23:54:55.333Z,18.64
2022-08-17T23:58:03.394Z,18.55
